createdAt,value
2023-05-14T00:01:36.026Z,37.62
2023-05-14T00:04:24.726Z,37.77
2023-05-14T00:07:13.583Z,37.67
2023-05-14T00:10:02.276Z,37.60
2023-05-14T00:12:52.427Z,37.74
2023-05-14T00:15:41.368Z,37.60
2023-05-14T00:18:31.680Z,37.89
2023-05-14T00:21:20.296Z,37.43
2023-05-14T00:24:11.616Z,37.79
2023-05-14T00:27:00.208Z,37.63
2023-05-14T00:29:48.840Z,37.50
2023-05-14T00:32:39.692Z,37.73
2023-05-14T00:35:29.779Z,37.75
2023-05-14T00:38:19.538Z,37.70
2023-05-14T00:41:08.409Z,37.52
2023-05-14T00:43:57.335Z,37.71
2023-05-14T00:46:46.266Z,37.45
2023-05-14T00:49:35.478Z,37.74
2023-05-14T00:52:25.956Z,37.60
2023-05-14T00:55:17.586Z,37.79
2023-05-14T00:58:10.737Z,37.90
2023-05-14T01:00:59.408Z,37.81
2023-05-14T01:03:49.941Z,37.54
2023-05-14T01:06:52.977Z,37.61
2023-05-14T01:09:47.392Z,37.63
2023-05-14T01:12:41.740Z,37.78
2023-05-14T01:15:32.725Z,37.71
2023-05-14T01:18:22.306Z,37.72
2023-05-14T01:21:26.488Z,37.84
2023-05-14T01:24:15.374Z,37.99
2023-05-14T01:27:12.613Z,37.81
2023-05-14T01:30:11.198Z,38.04
2023-05-14T01:33:03.346Z,38.07
2023-05-14T01:35:53.647Z,37.86
2023-05-14T01:38:45.847Z,37.86
2023-05-14T01:41:35.080Z,37.74
2023-05-14T01:44:24.116Z,37.81
2023-05-14T01:47:12.811Z,37.80
2023-05-14T01:50:01.409Z,37.92
2023-05-14T01:52:53.329Z,37.82
2023-05-14T01:55:43.654Z,37.86
2023-05-14T01:58:32.472Z,37.86
2023-05-14T02:01:21.106Z,37.67
2023-05-14T02:04:09.771Z,37.80
2023-05-14T02:06:58.679Z,37.90
2023-05-14T02:09:47.301Z,37.73
2023-05-14T02:12:37.417Z,37.72
2023-05-14T02:15:26.242Z,37.74
2023-05-14T02:18:15.412Z,37.92
2023-05-14T02:21:04.008Z,38.01
2023-05-14T02:23:52.651Z,38.02
2023-05-14T02:26:42.002Z,37.80
2023-05-14T02:29:32.089Z,38.10
2023-05-14T02:32:20.751Z,38.19
2023-05-14T02:35:10.394Z,37.76
2023-05-14T02:37:59.615Z,37.86
2023-05-14T02:40:49.385Z,37.85
2023-05-14T02:43:38.042Z,37.80
2023-05-14T02:46:28.084Z,38.03
2023-05-14T02:49:16.697Z,37.87
2023-05-14T02:52:05.584Z,37.87
2023-05-14T02:54:54.181Z,37.78
2023-05-14T02:57:42.731Z,37.88
2023-05-14T03:00:31.433Z,37.84
2023-05-14T03:03:22.401Z,38.13
2023-05-14T03:06:12.049Z,37.81
2023-05-14T03:09:00.702Z,37.94
2023-05-14T03:11:50.937Z,38.16
2023-05-14T03:14:39.521Z,38.24
2023-05-14T03:17:28.349Z,37.85
2023-05-14T03:20:18.460Z,37.89
2023-05-14T03:23:08.312Z,38.09
2023-05-14T03:25:56.970Z,38.15
2023-05-14T03:28:46.279Z,37.90
2023-05-14T03:31:34.946Z,37.96
2023-05-14T03:34:23.803Z,38.01
2023-05-14T03:37:14.086Z,38.17
2023-05-14T03:40:02.720Z,38.26
2023-05-14T03:42:51.316Z,38.32
2023-05-14T03:45:40.481Z,38.23
2023-05-14T03:48:29.323Z,38.28
2023-05-14T03:51:18.007Z,37.96
2023-05-14T03:54:08.664Z,38.25
2023-05-14T03:56:58.703Z,38.17
2023-05-14T03:59:47.303Z,38.22
2023-05-14T04:02:36.259Z,38.26
2023-05-14T04:05:25.033Z,38.27
2023-05-14T04:08:15.522Z,38.02
2023-05-14T04:11:05.692Z,37.98
2023-05-14T04:13:54.262Z,38.29
2023-05-14T04:16:45.166Z,38.10
2023-05-14T04:19:33.852Z,38.08
2023-05-14T04:22:22.435Z,38.02
2023-05-14T04:25:11.934Z,38.15
2023-05-14T04:28:02.025Z,38.04
2023-05-14T04:30:50.644Z,37.97
2023-05-14T04:33:39.831Z,37.95
2023-05-14T04:36:28.608Z,38.22
2023-05-14T04:39:17.505Z,38.01
2023-05-14T04:42:07.834Z,38.19
2023-05-14T04:44:57.939Z,38.00
2023-05-14T04:47:47.457Z,38.33
2023-05-14T04:50:36.407Z,38.34
2023-05-14T04:53:25.410Z,37.91
2023-05-14T04:56:14.242Z,38.04
2023-05-14T04:59:02.822Z,37.88
2023-05-14T05:01:52.988Z,38.14
2023-05-14T05:04:41.877Z,38.08
2023-05-14T05:07:30.421Z,38.24
2023-05-14T05:10:19.108Z,38.07
2023-05-14T05:13:07.876Z,38.36
2023-05-14T05:15:56.766Z,38.27
2023-05-14T05:18:46.801Z,38.41
2023-05-14T05:21:35.587Z,38.48
2023-05-14T05:24:24.216Z,38.52
2023-05-14T05:27:12.877Z,38.37
2023-05-14T05:30:03.984Z,38.40
2023-05-14T05:32:52.682Z,38.52
2023-05-14T05:35:44.508Z,38.45
2023-05-14T05:38:33.151Z,38.14
2023-05-14T05:41:22.306Z,38.22
2023-05-14T05:44:10.935Z,37.94
2023-05-14T05:46:59.758Z,37.83
2023-05-14T05:49:48.461Z,37.74
2023-05-14T05:52:38.590Z,38.20
2023-05-14T05:55:27.284Z,37.65
2023-05-14T05:58:17.211Z,37.96
2023-05-14T06:01:06.551Z,38.01
2023-05-14T06:03:55.193Z,37.96
2023-05-14T06:06:43.749Z,37.66
2023-05-14T06:09:33.740Z,37.74
2023-05-14T06:12:22.734Z,37.54
2023-05-14T06:15:12.207Z,37.64
2023-05-14T06:18:00.925Z,37.94
2023-05-14T06:20:49.689Z,37.72
2023-05-14T06:23:38.618Z,37.81
2023-05-14T06:26:28.628Z,37.73
2023-05-14T06:29:17.233Z,37.79
2023-05-14T06:32:07.205Z,37.69
2023-05-14T06:34:56.149Z,37.70
2023-05-14T06:37:45.055Z,37.62
2023-05-14T06:40:33.620Z,37.65
2023-05-14T06:43:24.075Z,37.73
2023-05-14T06:46:12.686Z,37.46
2023-05-14T06:49:01.358Z,37.57
2023-05-14T06:51:50.086Z,37.48
2023-05-14T06:54:39.036Z,37.57
2023-05-14T06:57:27.637Z,37.59
2023-05-14T07:00:19.715Z,37.64
2023-05-14T07:03:08.448Z,37.65
2023-05-14T07:05:57.571Z,37.54
2023-05-14T07:08:47.372Z,37.45
2023-05-14T07:11:36.083Z,37.61
2023-05-14T07:14:25.096Z,37.41
2023-05-14T07:17:15.232Z,37.38
2023-05-14T07:20:03.905Z,37.63
2023-05-14T07:22:53.074Z,37.80
2023-05-14T07:25:41.818Z,37.62
2023-05-14T07:28:30.556Z,37.65
2023-05-14T07:31:19.227Z,37.65
2023-05-14T07:34:10.979Z,37.55
2023-05-14T07:36:59.697Z,37.55
2023-05-14T07:39:48.238Z,37.57
2023-05-14T07:42:37.616Z,37.45
2023-05-14T07:45:26.330Z,37.61
2023-05-14T07:48:15.118Z,37.77
2023-05-14T07:51:05.762Z,37.80
2023-05-14T07:53:55.450Z,37.90
2023-05-14T07:56:44.534Z,37.75
2023-05-14T07:59:33.165Z,37.65
2023-05-14T08:02:22.008Z,37.63
2023-05-14T08:05:11.123Z,37.74
2023-05-14T08:08:01.468Z,37.81
2023-05-14T08:10:50.215Z,37.73
2023-05-14T08:13:38.839Z,37.79
2023-05-14T08:16:27.660Z,38.19
2023-05-14T08:19:17.255Z,38.34
2023-05-14T08:22:07.241Z,38.04
2023-05-14T08:24:59.178Z,37.90
2023-05-14T08:27:47.771Z,37.80
2023-05-14T08:30:36.739Z,37.49
2023-05-14T08:33:25.343Z,37.31
2023-05-14T08:36:14.088Z,37.05
2023-05-14T08:39:02.682Z,37.04
2023-05-14T08:41:53.429Z,36.57
2023-05-14T08:44:49.982Z,36.24
2023-05-14T08:47:39.246Z,36.67
2023-05-14T08:50:30.326Z,35.90
2023-05-14T08:53:19.384Z,36.02
2023-05-14T08:56:10.154Z,36.14
2023-05-14T08:59:00.311Z,35.60
2023-05-14T09:01:50.604Z,34.33
2023-05-14T09:04:39.277Z,34.17
2023-05-14T09:07:28.428Z,34.01
2023-05-14T09:10:17.744Z,34.11
2023-05-14T09:13:07.701Z,34.13
2023-05-14T09:15:58.945Z,34.18
2023-05-14T09:18:47.760Z,34.35
2023-05-14T09:21:36.763Z,34.50
2023-05-14T09:24:27.489Z,34.41
2023-05-14T09:27:21.492Z,34.26
2023-05-14T09:30:12.832Z,33.79
2023-05-14T09:33:03.967Z,33.73
2023-05-14T09:35:52.702Z,33.72
2023-05-14T09:38:41.430Z,33.54
2023-05-14T09:41:30.021Z,33.38
2023-05-14T09:44:19.581Z,33.60
2023-05-14T09:47:09.479Z,33.05
2023-05-14T09:49:59.558Z,33.07
2023-05-14T09:52:54.239Z,33.16
2023-05-14T09:55:43.014Z,33.33
2023-05-14T09:58:31.679Z,34.07
2023-05-14T10:01:21.334Z,33.95
2023-05-14T10:04:11.710Z,34.17
2023-05-14T10:07:02.732Z,33.84
2023-05-14T10:09:59.529Z,33.82
2023-05-14T10:12:54.242Z,34.33
2023-05-14T10:15:49.532Z,33.97
2023-05-14T10:18:42.376Z,33.66
2023-05-14T10:21:32.544Z,33.80
2023-05-14T10:24:23.677Z,34.30
2023-05-14T10:27:15.203Z,34.52
2023-05-14T10:30:12.729Z,34.46
2023-05-14T10:33:08.955Z,34.69
2023-05-14T10:36:04.544Z,34.40
2023-05-14T10:38:58.009Z,35.36
2023-05-14T10:41:49.490Z,34.87
2023-05-14T10:44:47.539Z,34.22
2023-05-14T10:47:37.748Z,34.28
2023-05-14T10:50:28.364Z,34.35
2023-05-14T10:53:16.932Z,34.46
2023-05-14T10:56:07.839Z,34.02
2023-05-14T10:59:02.248Z,34.13
2023-05-14T11:01:50.842Z,34.20
2023-05-14T11:04:42.717Z,34.19
2023-05-14T11:07:33.389Z,33.91
2023-05-14T11:10:23.869Z,34.19
2023-05-14T11:13:13.516Z,34.31
2023-05-14T11:16:21.107Z,33.97
2023-05-14T11:19:12.944Z,33.70
2023-05-14T11:22:02.262Z,33.22
2023-05-14T11:24:51.542Z,33.24
2023-05-14T11:27:40.647Z,33.23
2023-05-14T11:30:29.473Z,32.82
2023-05-14T11:33:20.359Z,32.63
2023-05-14T11:36:11.152Z,32.85
2023-05-14T11:38:59.935Z,32.49
2023-05-14T11:41:48.928Z,32.38
2023-05-14T11:44:40.652Z,32.44
2023-05-14T11:47:31.679Z,32.47
2023-05-14T11:50:23.129Z,32.54
2023-05-14T11:53:13.099Z,32.78
2023-05-14T11:56:04.348Z,32.77
2023-05-14T11:58:58.668Z,32.82
2023-05-14T12:01:49.040Z,32.32
2023-05-14T12:04:39.433Z,32.22
2023-05-14T12:07:31.276Z,32.21
2023-05-14T12:10:20.105Z,32.47
2023-05-14T12:13:08.895Z,32.90
2023-05-14T12:15:58.921Z,32.98
2023-05-14T12:18:47.619Z,33.33
2023-05-14T12:21:38.026Z,32.74
2023-05-14T12:24:28.464Z,33.14
2023-05-14T12:27:16.981Z,32.84
2023-05-14T12:33:00.218Z,32.83
2023-05-14T12:35:48.885Z,32.91
2023-05-14T12:38:41.318Z,32.71
2023-05-14T12:41:31.947Z,32.68
2023-05-14T12:44:22.540Z,32.46
2023-05-14T12:47:11.273Z,32.84
2023-05-14T12:49:59.976Z,32.58
2023-05-14T12:52:48.718Z,31.85
2023-05-14T12:55:37.367Z,31.59
2023-05-14T12:58:27.465Z,31.21
2023-05-14T13:01:16.300Z,30.79
2023-05-14T13:04:05.508Z,31.66
2023-05-14T13:06:54.255Z,31.53
2023-05-14T13:09:43.160Z,31.47
2023-05-14T13:12:32.261Z,31.67
2023-05-14T13:15:22.783Z,31.52
2023-05-14T13:18:11.751Z,31.13
2023-05-14T13:21:00.453Z,31.07
2023-05-14T13:23:49.723Z,31.34
2023-05-14T13:26:38.620Z,31.43
2023-05-14T13:29:29.311Z,31.61
2023-05-14T13:32:19.636Z,31.48
2023-05-14T13:35:09.359Z,31.20
2023-05-14T13:37:58.012Z,30.98
2023-05-14T13:40:46.774Z,31.81
2023-05-14T13:43:36.898Z,31.41
2023-05-14T13:46:25.771Z,31.53
2023-05-14T13:49:15.779Z,31.63
2023-05-14T13:52:04.425Z,31.66
2023-05-14T13:54:53.082Z,31.38
2023-05-14T13:57:43.254Z,31.28
2023-05-14T14:00:32.154Z,31.38
2023-05-14T14:03:20.846Z,31.95
2023-05-14T14:06:10.936Z,31.97
2023-05-14T14:08:59.606Z,32.00
2023-05-14T14:11:48.409Z,31.32
2023-05-14T14:14:37.032Z,31.60
2023-05-14T14:17:25.964Z,31.39
2023-05-14T14:20:15.111Z,31.73
2023-05-14T14:23:05.130Z,32.10
2023-05-14T14:25:53.936Z,32.33
2023-05-14T14:28:42.976Z,32.62
2023-05-14T14:31:31.793Z,32.69
2023-05-14T14:34:20.498Z,32.82
2023-05-14T14:37:09.300Z,32.97
2023-05-14T14:40:01.829Z,32.61
2023-05-14T14:42:51.052Z,32.63
2023-05-14T14:45:39.793Z,32.98
2023-05-14T14:48:31.532Z,32.66
2023-05-14T14:51:20.237Z,32.83
2023-05-14T14:54:09.014Z,32.87
2023-05-14T14:57:01.795Z,32.84
2023-05-14T14:59:50.749Z,32.64
2023-05-14T15:02:41.946Z,32.72
2023-05-14T15:05:30.747Z,32.50
2023-05-14T15:08:21.813Z,32.73
2023-05-14T15:11:10.385Z,33.12
2023-05-14T15:14:00.466Z,33.05
2023-05-14T15:16:51.061Z,32.12
2023-05-14T15:19:39.889Z,31.52
2023-05-14T15:22:28.543Z,31.39
2023-05-14T15:25:17.234Z,31.24
2023-05-14T15:28:07.937Z,31.10
2023-05-14T15:30:57.934Z,31.62
2023-05-14T15:33:46.594Z,31.64
2023-05-14T15:36:35.223Z,31.90
2023-05-14T15:39:23.965Z,31.99
2023-05-14T15:42:12.771Z,32.46
2023-05-14T15:45:01.741Z,31.99
2023-05-14T15:47:51.944Z,32.52
2023-05-14T15:50:43.974Z,31.81
2023-05-14T15:53:32.737Z,31.93
2023-05-14T15:56:21.960Z,31.97
2023-05-14T15:59:10.742Z,31.88
2023-05-14T16:01:59.427Z,32.18
2023-05-14T16:04:49.912Z,32.46
2023-05-14T16:07:38.701Z,32.88
2023-05-14T16:10:27.387Z,32.39
2023-05-14T16:13:16.133Z,32.30
2023-05-14T16:16:05.203Z,32.39
2023-05-14T16:18:53.880Z,32.32
2023-05-14T16:21:44.012Z,32.41
2023-05-14T16:24:35.220Z,32.54
2023-05-14T16:27:23.934Z,32.87
2023-05-14T16:30:13.630Z,32.60
2023-05-14T16:33:02.386Z,32.27
2023-05-14T16:35:51.697Z,31.94
2023-05-14T16:38:52.626Z,32.02
2023-05-14T16:41:50.554Z,32.54
2023-05-14T16:44:39.196Z,32.49
2023-05-14T16:47:27.751Z,32.69
2023-05-14T16:50:16.493Z,32.71
2023-05-14T16:53:05.151Z,33.22
2023-05-14T16:55:55.204Z,33.21
2023-05-14T16:58:43.949Z,33.14
2023-05-14T17:01:32.635Z,32.73
2023-05-14T17:04:21.403Z,32.76
2023-05-14T17:07:10.199Z,32.74
2023-05-14T17:10:00.108Z,33.11
2023-05-14T17:12:50.311Z,33.06
2023-05-14T17:15:40.228Z,33.12
2023-05-14T17:18:29.199Z,33.34
2023-05-14T17:21:18.408Z,33.27
2023-05-14T17:24:07.931Z,33.06
2023-05-14T17:26:56.607Z,33.15
2023-05-14T17:29:46.684Z,33.13
2023-05-14T17:32:35.440Z,33.37
2023-05-14T17:35:24.589Z,33.47
2023-05-14T17:38:13.711Z,33.67
2023-05-14T17:41:02.429Z,32.92
2023-05-14T17:43:52.418Z,32.71
2023-05-14T17:46:42.600Z,32.94
2023-05-14T17:49:31.730Z,32.77
2023-05-14T17:52:20.698Z,33.01
2023-05-14T17:55:10.301Z,32.69
2023-05-14T17:57:59.058Z,32.62
2023-05-14T18:00:47.781Z,33.46
2023-05-14T18:03:37.940Z,33.31
2023-05-14T18:06:26.780Z,33.03
2023-05-14T18:09:15.456Z,32.80
2023-05-14T18:12:04.046Z,32.92
2023-05-14T18:14:52.747Z,33.23
2023-05-14T18:17:41.437Z,33.61
2023-05-14T18:20:33.334Z,33.70
2023-05-14T18:23:22.966Z,33.86
2023-05-14T18:26:11.724Z,33.88
2023-05-14T18:29:00.404Z,33.81
2023-05-14T18:31:49.212Z,33.72
2023-05-14T18:34:37.715Z,33.89
2023-05-14T18:37:27.746Z,33.97
2023-05-14T18:40:18.443Z,34.20
2023-05-14T18:43:07.859Z,34.29
2023-05-14T18:45:56.570Z,34.43
2023-05-14T18:48:45.216Z,34.82
2023-05-14T18:51:33.939Z,35.50
2023-05-14T18:54:24.348Z,35.55
2023-05-14T18:57:13.563Z,35.74
2023-05-14T19:00:05.278Z,35.74
2023-05-14T19:02:54.018Z,35.73
2023-05-14T19:05:43.136Z,35.93
2023-05-14T19:08:39.599Z,36.05
2023-05-14T19:11:29.659Z,36.08
2023-05-14T19:14:18.800Z,35.94
2023-05-14T19:17:10.403Z,36.22
2023-05-14T19:20:08.934Z,36.02
2023-05-14T19:23:00.028Z,35.98
2023-05-14T19:25:49.333Z,36.10
2023-05-14T19:28:39.759Z,36.01
2023-05-14T19:31:29.857Z,35.93
2023-05-14T19:34:19.387Z,36.07
2023-05-14T19:37:19.632Z,35.97
2023-05-14T19:40:15.948Z,36.26
2023-05-14T19:43:18.103Z,36.33
2023-05-14T19:46:09.890Z,36.46
2023-05-14T19:48:58.874Z,36.64
2023-05-14T19:51:47.498Z,36.39
2023-05-14T19:54:36.535Z,36.38
2023-05-14T19:57:28.010Z,36.58
2023-05-14T20:00:17.577Z,36.55
2023-05-14T20:03:08.040Z,36.67
2023-05-14T20:05:58.177Z,36.71
2023-05-14T20:08:47.048Z,37.11
2023-05-14T20:11:35.855Z,37.16
2023-05-14T20:14:24.520Z,37.13
2023-05-14T20:17:13.187Z,37.24
2023-05-14T20:20:04.644Z,37.11
2023-05-14T20:22:53.357Z,36.78
2023-05-14T20:25:43.012Z,37.45
2023-05-14T20:28:31.879Z,37.28
2023-05-14T20:31:21.429Z,37.61
2023-05-14T20:34:10.335Z,37.58
2023-05-14T20:37:04.779Z,37.45
2023-05-14T20:39:53.517Z,37.69
2023-05-14T20:42:45.721Z,37.43
2023-05-14T20:45:34.687Z,37.31
2023-05-14T20:48:23.287Z,37.57
2023-05-14T20:51:12.749Z,37.41
2023-05-14T20:54:03.226Z,37.41
2023-05-14T20:56:52.534Z,37.49
2023-05-14T20:59:41.111Z,37.59
2023-05-14T21:02:29.848Z,37.56
2023-05-14T21:05:19.142Z,37.49
2023-05-14T21:08:08.326Z,37.61
2023-05-14T21:10:58.299Z,37.64
2023-05-14T21:13:47.233Z,37.49
2023-05-14T21:16:36.059Z,37.48
2023-05-14T21:19:25.118Z,37.77
2023-05-14T21:22:14.554Z,37.79
2023-05-14T21:25:03.358Z,37.57
2023-05-14T21:27:53.489Z,37.70
2023-05-14T21:30:42.260Z,37.93
2023-05-14T21:33:32.962Z,37.77
2023-05-14T21:36:22.072Z,37.69
2023-05-14T21:39:10.727Z,37.60
2023-05-14T21:41:59.335Z,37.57
2023-05-14T21:44:49.435Z,37.55
2023-05-14T21:47:39.045Z,37.35
2023-05-14T21:50:27.830Z,37.49
2023-05-14T21:53:16.714Z,37.43
2023-05-14T21:56:06.045Z,37.59
2023-05-14T21:58:56.239Z,37.65
2023-05-14T22:02:05.578Z,37.49
2023-05-14T22:04:55.877Z,37.46
2023-05-14T22:07:44.921Z,37.44
2023-05-14T22:10:33.679Z,37.56
2023-05-14T22:13:22.300Z,37.61
2023-05-14T22:16:13.304Z,37.79
2023-05-14T22:19:06.010Z,37.51
2023-05-14T22:21:56.450Z,37.61
2023-05-14T22:24:45.087Z,37.73
2023-05-14T22:27:34.136Z,37.81
2023-05-14T22:30:22.765Z,37.77
2023-05-14T22:33:11.534Z,37.82
2023-05-14T22:36:01.570Z,38.00
2023-05-14T22:38:50.155Z,38.07
2023-05-14T22:41:38.773Z,38.33
2023-05-14T22:44:29.663Z,37.98
2023-05-14T22:47:18.646Z,38.17
2023-05-14T22:50:11.499Z,38.15
2023-05-14T22:53:01.567Z,38.31
2023-05-14T22:55:50.280Z,38.24
2023-05-14T22:58:38.865Z,37.96
2023-05-14T23:01:27.517Z,38.12
2023-05-14T23:04:16.329Z,38.36
2023-05-14T23:07:05.009Z,38.26
2023-05-14T23:09:54.956Z,37.97
2023-05-14T23:12:43.613Z,38.21
2023-05-14T23:15:32.490Z,38.13
2023-05-14T23:18:24.175Z,37.94
2023-05-14T23:21:13.641Z,38.33
2023-05-14T23:24:02.281Z,37.94
2023-05-14T23:26:52.354Z,38.19
2023-05-14T23:29:40.906Z,38.13
2023-05-14T23:32:29.915Z,38.23
2023-05-14T23:35:18.882Z,38.35
2023-05-14T23:38:08.571Z,38.23
2023-05-14T23:40:57.236Z,38.15
2023-05-14T23:43:48.788Z,38.05
2023-05-14T23:46:37.583Z,38.38
2023-05-14T23:49:26.263Z,38.23
2023-05-14T23:52:14.897Z,38.23
2023-05-14T23:55:04.279Z,38.43
2023-05-14T23:57:52.914Z,38.25
